Fourcroy — VMQ6160 — position and weather

sailwx.info

Track history (hours):
 
Tides and Currents Weather Stations Pressure Air Temp Water Temp Dewpoint Dewpoint Depression Visibility Wind Speed Wind Dir Waves Ship Positions

Fourcroy

Last reported at 2015-Aug-23 01:25 UTC. Time now 2015-Aug-31 19:53 UTC.
Position S 12°28' E 130°51'.
Warning: this ship's position is 8 days out of date.

Length 47 m; draft 2 m.

Type: Cargo ship. MMSI: 503338000.

Date/timePositionNaut miles runAvg speedWind from/ knotsBaromVisibWave heightAir tempDewpointWater temp
2015-Aug-23 01:25S 12°28' E 130°51'0 0.0
2015-Aug-22 22:25S 12°28' E 130°51'0 0.1
2015-Aug-22 21:25S 12°28' E 130°51'0 0.1
2015-Aug-22 20:31S 12°28' E 130°51'0 0.0
2015-Aug-22 19:31S 12°28' E 130°51'0 0.1
2015-Aug-22 18:31S 12°28' E 130°51'0 0.1
2015-Aug-22 17:31S 12°28' E 130°51'0 0.1
2015-Aug-22 16:31S 12°28' E 130°51'0 0.0
2015-Aug-22 15:31S 12°28' E 130°51'0 0.1
2015-Aug-22 14:31S 12°28' E 130°51'0 0.0
2015-Aug-22 13:31S 12°28' E 130°51'0 0.0
2015-Aug-22 12:31S 12°28' E 130°51'0 0.1
2015-Aug-22 11:31S 12°28' E 130°51'0 0.0
2015-Aug-22 10:31S 12°28' E 130°51'0 0.0
2015-Aug-22 09:31S 12°28' E 130°51'0 0.0
2015-Aug-22 08:31S 12°28' E 130°51'0 0.1
2015-Aug-22 07:31S 12°28' E 130°51'0 0.1
2015-Aug-22 06:31S 12°28' E 130°51'0 0.1
2015-Aug-22 05:31S 12°28' E 130°51'0 0.0
2015-Aug-22 04:31S 12°28' E 130°51'0 0.1
2015-Aug-22 03:31S 12°28' E 130°51'0 0.1
2015-Aug-22 02:31S 12°28' E 130°51'0 0.0
2015-Aug-22 01:31S 12°28' E 130°51'0 0.1
2015-Aug-22 00:31S 12°28' E 130°51'0 0.1
2015-Aug-21 23:31S 12°28' E 130°51'0 0.1
2015-Aug-21 22:31S 12°28' E 130°51'0 0.0
2015-Aug-21 21:31S 12°28' E 130°51'0 0.0
2015-Aug-21 20:31S 12°28' E 130°51'0 0.1
2015-Aug-21 19:31S 12°28' E 130°51'0 0.1
2015-Aug-21 18:28S 12°28' E 130°51'0 0.1
2015-Aug-21 17:31S 12°28' E 130°51'0 0.0
2015-Aug-21 16:31S 12°28' E 130°51'0 0.1
2015-Aug-21 15:31S 12°28' E 130°51'0 0.1
2015-Aug-21 14:31S 12°28' E 130°51'0 0.0
2015-Aug-21 13:28S 12°28' E 130°51'0 0.1
2015-Aug-21 12:31S 12°28' E 130°51'0 0.0
2015-Aug-21 11:31S 12°28' E 130°51'0 0.0
2015-Aug-21 10:31S 12°28' E 130°51'0 0.0
2015-Aug-21 09:31S 12°28' E 130°51'0 0.0
2015-Aug-21 08:31S 12°28' E 130°51'0 0.1
2015-Aug-21 07:31S 12°28' E 130°51'0 0.1
2015-Aug-21 06:31S 12°28' E 130°51'0 0.1
2015-Aug-21 05:31S 12°28' E 130°51'0 0.1
2015-Aug-21 04:31S 12°28' E 130°51'0 0.0
2015-Aug-21 03:31S 12°28' E 130°51'0 0.0
2015-Aug-21 02:31S 12°28' E 130°51'0 0.1
2015-Aug-21 01:31S 12°28' E 130°51'0 0.1
2015-Aug-21 00:31S 12°28' E 130°51'0 0.1
2015-Aug-20 23:31S 12°28' E 130°51'0 0.1
2015-Aug-20 22:31S 12°28' E 130°51'0 0.2
2015-Aug-20 21:34S 12°28' E 130°51'3 3.1
2015-Aug-20 20:33S 12°27' E 130°48'7 6.8
2015-Aug-20 19:34S 12°20' E 130°48'6 5.6
2015-Aug-20 18:33S 12°15' E 130°50'3 2.6
2015-Aug-20 17:33S 12°13' E 130°52'4 3.6
2015-Aug-20 16:33S 12°16' E 130°50'7 6.5
2015-Aug-20 15:31S 12°10' E 130°53'17 5.4
2015-Aug-20 12:24S 11°58' E 131°06'5 6.2
2015-Aug-20 11:33S 11°55' E 131°10'  
Track history (hours):
 
Tides and Currents Weather Stations Pressure Air Temp Water Temp Dewpoint Dewpoint Depression Visibility Wind Speed Wind Dir Waves Ship Positions

Fourcroy

Last reported at 2015-Aug-23 01:25 UTC. Time now 2015-Aug-31 19:53 UTC.
Position S 12°28' E 130°51'.
Warning: this ship's position is 8 days out of date.

Length 47 m; draft 2 m.

Type: Cargo ship. MMSI: 503338000.

Date/timePositionNaut miles runAvg speedWind from/ knotsBaromVisibWave heightAir tempDewpointWater temp
2015-Aug-23 01:25S 12°28' E 130°51'0 0.0
2015-Aug-22 22:25S 12°28' E 130°51'0 0.1
2015-Aug-22 21:25S 12°28' E 130°51'0 0.1
2015-Aug-22 20:31S 12°28' E 130°51'0 0.0
2015-Aug-22 19:31S 12°28' E 130°51'0 0.1
2015-Aug-22 18:31S 12°28' E 130°51'0 0.1
2015-Aug-22 17:31S 12°28' E 130°51'0 0.1
2015-Aug-22 16:31S 12°28' E 130°51'0 0.0
2015-Aug-22 15:31S 12°28' E 130°51'0 0.1
2015-Aug-22 14:31S 12°28' E 130°51'0 0.0
2015-Aug-22 13:31S 12°28' E 130°51'0 0.0
2015-Aug-22 12:31S 12°28' E 130°51'0 0.1
2015-Aug-22 11:31S 12°28' E 130°51'0 0.0
2015-Aug-22 10:31S 12°28' E 130°51'0 0.0
2015-Aug-22 09:31S 12°28' E 130°51'0 0.0
2015-Aug-22 08:31S 12°28' E 130°51'0 0.1
2015-Aug-22 07:31S 12°28' E 130°51'0 0.1
2015-Aug-22 06:31S 12°28' E 130°51'0 0.1
2015-Aug-22 05:31S 12°28' E 130°51'0 0.0
2015-Aug-22 04:31S 12°28' E 130°51'0 0.1
2015-Aug-22 03:31S 12°28' E 130°51'0 0.1
2015-Aug-22 02:31S 12°28' E 130°51'0 0.0
2015-Aug-22 01:31S 12°28' E 130°51'0 0.1
2015-Aug-22 00:31S 12°28' E 130°51'0 0.1
2015-Aug-21 23:31S 12°28' E 130°51'0 0.1
2015-Aug-21 22:31S 12°28' E 130°51'0 0.0
2015-Aug-21 21:31S 12°28' E 130°51'0 0.0
2015-Aug-21 20:31S 12°28' E 130°51'0 0.1
2015-Aug-21 19:31S 12°28' E 130°51'0 0.1
2015-Aug-21 18:28S 12°28' E 130°51'0 0.1
2015-Aug-21 17:31S 12°28' E 130°51'0 0.0
2015-Aug-21 16:31S 12°28' E 130°51'0 0.1
2015-Aug-21 15:31S 12°28' E 130°51'0 0.1
2015-Aug-21 14:31S 12°28' E 130°51'0 0.0
2015-Aug-21 13:28S 12°28' E 130°51'0 0.1
2015-Aug-21 12:31S 12°28' E 130°51'0 0.0
2015-Aug-21 11:31S 12°28' E 130°51'0 0.0
2015-Aug-21 10:31S 12°28' E 130°51'0 0.0
2015-Aug-21 09:31S 12°28' E 130°51'0 0.0
2015-Aug-21 08:31S 12°28' E 130°51'0 0.1
2015-Aug-21 07:31S 12°28' E 130°51'0 0.1
2015-Aug-21 06:31S 12°28' E 130°51'0 0.1
2015-Aug-21 05:31S 12°28' E 130°51'0 0.1
2015-Aug-21 04:31S 12°28' E 130°51'0 0.0
2015-Aug-21 03:31S 12°28' E 130°51'0 0.0
2015-Aug-21 02:31S 12°28' E 130°51'0 0.1
2015-Aug-21 01:31S 12°28' E 130°51'0 0.1
2015-Aug-21 00:31S 12°28' E 130°51'0 0.1
2015-Aug-20 23:31S 12°28' E 130°51'0 0.1
2015-Aug-20 22:31S 12°28' E 130°51'0 0.2
2015-Aug-20 21:34S 12°28' E 130°51'3 3.1
2015-Aug-20 20:33S 12°27' E 130°48'7 6.8
2015-Aug-20 19:34S 12°20' E 130°48'6 5.6
2015-Aug-20 18:33S 12°15' E 130°50'3 2.6
2015-Aug-20 17:33S 12°13' E 130°52'4 3.6
2015-Aug-20 16:33S 12°16' E 130°50'7 6.5
2015-Aug-20 15:31S 12°10' E 130°53'17 5.4
2015-Aug-20 12:24S 11°58' E 131°06'5 6.2
2015-Aug-20 11:33S 11°55' E 131°10'  

Dump ship's entire track history